Decoded Metar for PADL (DILLINGHAM in AK, USA) (IATA:DLG) | Meteo·Mobile Aviation Weather
aviador You're here:

PADL Decoded Metar

DILLINGHAM in AK, USA
Report Time2018-11-12 21:56:00
UTC Time2018-11-12 22:39:47
Flight Rules mvfr MVFR
Wind010° at 16 kt
W.Decomp.*RWY 01: 15.5 kt HW 4.1 kt LCW
W.Rank010° ranks 4
Current wind is above 010° avg. (9.1)
Visibility9999 m
Phenomena:N/A
Clouds:Broken 011 Hf
Expected CloudBase > 400 ft AGL from Temp-Dew spread
Ceiling1,100 ft
Temp02°C (ISA -13)
Dew Point01°C (93% RH)
AAT-5.6°C
QNH995 hPa
Density Alt-768 ft
Elevation85 ft
Report Wrong Elevation
Raw Report
PADL 122156Z 01016KT 10SM BKN011 02/01 A2938=

Extra information for PADL:More info

Metar Taf Metar & Taf Last 4 Metars F.Rules Stats Wind Profile Meteogram Temp Stats Airport Information Weather charts Add Link Nearby VenuesMetar ALERT Operation Metar Decoded Social comments

AIRNAV info for PADL